sensor_id;sensor_type;location;lat;lon;timestamp;P1;durP1;ratioP1;P2;durP2;ratioP2
10523;SDS011;5310;48.638;9.060;2023-04-03T00:00:49;0.87;;;0.87;;
10523;SDS011;5310;48.638;9.060;2023-04-03T00:03:15;0.90;;;0.90;;
10523;SDS011;5310;48.638;9.060;2023-04-03T00:05:41;0.88;;;0.88;;
10523;SDS011;5310;48.638;9.060;2023-04-03T00:08:07;0.90;;;0.90;;
10523;SDS011;5310;48.638;9.060;2023-04-03T00:10:35;0.90;;;0.90;;
10523;SDS011;5310;48.638;9.060;2023-04-03T00:13:02;0.95;;;0.95;;
10523;SDS011;5310;48.638;9.060;2023-04-03T00:15:28;1.00;;;1.00;;
10523;SDS011;5310;48.638;9.060;2023-04-03T00:17:54;1.00;;;1.00;;
10523;SDS011;5310;48.638;9.060;2023-04-03T00:20:20;1.00;;;1.00;;
10523;SDS011;5310;48.638;9.060;2023-04-03T00:22:46;1.00;;;1.00;;
10523;SDS011;5310;48.638;9.060;2023-04-03T00:25:12;1.10;;;1.10;;
10523;SDS011;5310;48.638;9.060;2023-04-03T00:27:38;1.00;;;1.00;;
10523;SDS011;5310;48.638;9.060;2023-04-03T00:30:04;0.95;;;0.95;;
10523;SDS011;5310;48.638;9.060;2023-04-03T00:32:31;0.90;;;0.90;;
10523;SDS011;5310;48.638;9.060;2023-04-03T00:34:57;0.90;;;0.90;;
10523;SDS011;5310;48.638;9.060;2023-04-03T00:37:22;0.80;;;0.80;;
10523;SDS011;5310;48.638;9.060;2023-04-03T00:39:48;0.68;;;0.68;;
10523;SDS011;5310;48.638;9.060;2023-04-03T00:42:15;0.60;;;0.60;;
10523;SDS011;5310;48.638;9.060;2023-04-03T00:47:08;0.70;;;0.70;;
10523;SDS011;5310;48.638;9.060;2023-04-03T00:49:35;0.70;;;0.70;;
10523;SDS011;5310;48.638;9.060;2023-04-03T00:52:01;0.70;;;0.70;;
10523;SDS011;5310;48.638;9.060;2023-04-03T00:54:28;0.70;;;0.70;;
10523;SDS011;5310;48.638;9.060;2023-04-03T00:56:55;0.80;;;0.80;;
10523;SDS011;5310;48.638;9.060;2023-04-03T00:59:23;0.80;;;0.80;;
10523;SDS011;5310;48.638;9.060;2023-04-03T01:01:51;0.80;;;0.80;;
10523;SDS011;5310;48.638;9.060;2023-04-03T01:06:55;0.80;;;0.80;;
10523;SDS011;5310;48.638;9.060;2023-04-03T01:09:21;0.75;;;0.75;;
10523;SDS011;5310;48.638;9.060;2023-04-03T01:11:47;0.80;;;0.80;;
10523;SDS011;5310;48.638;9.060;2023-04-03T01:14:13;1.00;;;1.00;;
10523;SDS011;5310;48.638;9.060;2023-04-03T01:16:39;1.00;;;1.00;;
10523;SDS011;5310;48.638;9.060;2023-04-03T01:19:06;1.10;;;1.10;;
10523;SDS011;5310;48.638;9.060;2023-04-03T01:24:49;1.10;;;1.10;;
10523;SDS011;5310;48.638;9.060;2023-04-03T01:27:08;1.00;;;1.00;;
10523;SDS011;5310;48.638;9.060;2023-04-03T01:29:35;1.00;;;1.00;;
10523;SDS011;5310;48.638;9.060;2023-04-03T01:32:01;1.00;;;1.00;;
10523;SDS011;5310;48.638;9.060;2023-04-03T01:34:28;1.10;;;1.10;;
10523;SDS011;5310;48.638;9.060;2023-04-03T01:36:54;1.08;;;1.08;;
10523;SDS011;5310;48.638;9.060;2023-04-03T01:39:20;0.95;;;0.95;;
10523;SDS011;5310;48.638;9.060;2023-04-03T01:41:46;0.80;;;0.80;;
10523;SDS011;5310;48.638;9.060;2023-04-03T01:44:13;0.70;;;0.70;;
10523;SDS011;5310;48.638;9.060;2023-04-03T01:46:39;0.60;;;0.60;;
10523;SDS011;5310;48.638;9.060;2023-04-03T01:49:07;0.60;;;0.60;;
10523;SDS011;5310;48.638;9.060;2023-04-03T01:51:33;0.70;;;0.70;;
10523;SDS011;5310;48.638;9.060;2023-04-03T01:53:59;0.70;;;0.70;;
10523;SDS011;5310;48.638;9.060;2023-04-03T01:56:25;0.70;;;0.70;;
10523;SDS011;5310;48.638;9.060;2023-04-03T01:58:51;0.80;;;0.80;;
10523;SDS011;5310;48.638;9.060;2023-04-03T02:01:17;0.80;;;0.80;;
10523;SDS011;5310;48.638;9.060;2023-04-03T02:03:43;0.90;;;0.90;;
10523;SDS011;5310;48.638;9.060;2023-04-03T02:06:09;1.00;;;1.00;;
10523;SDS011;5310;48.638;9.060;2023-04-03T02:08:35;1.00;;;1.00;;
10523;SDS011;5310;48.638;9.060;2023-04-03T02:11:01;1.00;;;1.00;;
10523;SDS011;5310;48.638;9.060;2023-04-03T02:13:27;1.00;;;1.00;;
10523;SDS011;5310;48.638;9.060;2023-04-03T02:15:53;1.00;;;1.00;;
10523;SDS011;5310;48.638;9.060;2023-04-03T02:18:19;0.88;;;0.88;;
10523;SDS011;5310;48.638;9.060;2023-04-03T02:20:46;0.70;;;0.70;;
10523;SDS011;5310;48.638;9.060;2023-04-03T02:23:12;0.70;;;0.70;;
10523;SDS011;5310;48.638;9.060;2023-04-03T02:25:38;0.70;;;0.70;;
10523;SDS011;5310;48.638;9.060;2023-04-03T02:28:04;0.70;;;0.70;;
10523;SDS011;5310;48.638;9.060;2023-04-03T02:30:30;0.70;;;0.70;;
10523;SDS011;5310;48.638;9.060;2023-04-03T02:32:56;0.60;;;0.60;;
10523;SDS011;5310;48.638;9.060;2023-04-03T02:35:22;0.70;;;0.70;;
10523;SDS011;5310;48.638;9.060;2023-04-03T02:37:48;0.70;;;0.70;;
10523;SDS011;5310;48.638;9.060;2023-04-03T02:40:14;0.70;;;0.70;;
10523;SDS011;5310;48.638;9.060;2023-04-03T02:42:40;0.60;;;0.60;;
10523;SDS011;5310;48.638;9.060;2023-04-03T02:45:06;0.60;;;0.60;;
10523;SDS011;5310;48.638;9.060;2023-04-03T02:47:32;0.70;;;0.70;;
10523;SDS011;5310;48.638;9.060;2023-04-03T02:49:58;0.70;;;0.70;;
10523;SDS011;5310;48.638;9.060;2023-04-03T02:52:24;0.70;;;0.70;;
10523;SDS011;5310;48.638;9.060;2023-04-03T02:54:50;0.60;;;0.60;;
10523;SDS011;5310;48.638;9.060;2023-04-03T02:57:16;0.60;;;0.60;;
10523;SDS011;5310;48.638;9.060;2023-04-03T02:59:42;0.70;;;0.70;;
10523;SDS011;5310;48.638;9.060;2023-04-03T03:02:09;0.65;;;0.65;;
10523;SDS011;5310;48.638;9.060;2023-04-03T03:04:35;0.65;;;0.65;;
10523;SDS011;5310;48.638;9.060;2023-04-03T03:07:01;0.70;;;0.70;;
10523;SDS011;5310;48.638;9.060;2023-04-03T03:09:27;0.70;;;0.70;;
10523;SDS011;5310;48.638;9.060;2023-04-03T03:11:54;0.60;;;0.60;;
10523;SDS011;5310;48.638;9.060;2023-04-03T03:14:20;0.70;;;0.70;;
10523;SDS011;5310;48.638;9.060;2023-04-03T03:16:46;0.60;;;0.60;;
10523;SDS011;5310;48.638;9.060;2023-04-03T03:19:12;0.60;;;0.60;;
10523;SDS011;5310;48.638;9.060;2023-04-03T03:21:38;0.60;;;0.60;;
10523;SDS011;5310;48.638;9.060;2023-04-03T03:24:04;0.68;;;0.68;;
10523;SDS011;5310;48.638;9.060;2023-04-03T03:26:30;0.60;;;0.60;;
10523;SDS011;5310;48.638;9.060;2023-04-03T03:28:56;0.60;;;0.60;;
10523;SDS011;5310;48.638;9.060;2023-04-03T03:31:22;0.60;;;0.60;;
10523;SDS011;5310;48.638;9.060;2023-04-03T03:33:48;0.60;;;0.60;;
10523;SDS011;5310;48.638;9.060;2023-04-03T03:36:14;0.60;;;0.60;;
10523;SDS011;5310;48.638;9.060;2023-04-03T03:38:40;0.60;;;0.60;;
10523;SDS011;5310;48.638;9.060;2023-04-03T03:41:06;0.70;;;0.70;;
10523;SDS011;5310;48.638;9.060;2023-04-03T03:43:32;0.77;;;0.77;;
10523;SDS011;5310;48.638;9.060;2023-04-03T03:45:58;0.80;;;0.80;;
10523;SDS011;5310;48.638;9.060;2023-04-03T03:48:24;0.80;;;0.80;;
10523;SDS011;5310;48.638;9.060;2023-04-03T03:50:50;0.80;;;0.80;;
10523;SDS011;5310;48.638;9.060;2023-04-03T03:53:16;0.90;;;0.90;;
10523;SDS011;5310;48.638;9.060;2023-04-03T03:55:42;1.00;;;1.00;;
10523;SDS011;5310;48.638;9.060;2023-04-03T03:58:08;1.00;;;1.00;;
10523;SDS011;5310;48.638;9.060;2023-04-03T04:00:34;1.00;;;1.00;;
10523;SDS011;5310;48.638;9.060;2023-04-03T04:03:00;1.00;;;1.00;;
10523;SDS011;5310;48.638;9.060;2023-04-03T04:05:26;1.02;;;1.02;;
10523;SDS011;5310;48.638;9.060;2023-04-03T04:07:52;1.00;;;1.00;;
10523;SDS011;5310;48.638;9.060;2023-04-03T04:10:18;1.00;;;1.00;;
10523;SDS011;5310;48.638;9.060;2023-04-03T04:12:44;0.90;;;0.90;;
10523;SDS011;5310;48.638;9.060;2023-04-03T04:15:10;0.82;;;0.82;;
10523;SDS011;5310;48.638;9.060;2023-04-03T04:17:36;0.80;;;0.80;;
10523;SDS011;5310;48.638;9.060;2023-04-03T04:20:03;0.77;;;0.77;;
10523;SDS011;5310;48.638;9.060;2023-04-03T04:22:30;0.70;;;0.70;;
10523;SDS011;5310;48.638;9.060;2023-04-03T04:24:56;0.80;;;0.80;;
10523;SDS011;5310;48.638;9.060;2023-04-03T04:27:21;0.70;;;0.70;;
10523;SDS011;5310;48.638;9.060;2023-04-03T04:29:47;0.70;;;0.70;;
10523;SDS011;5310;48.638;9.060;2023-04-03T04:32:13;0.63;;;0.63;;
10523;SDS011;5310;48.638;9.060;2023-04-03T04:34:39;0.63;;;0.63;;
10523;SDS011;5310;48.638;9.060;2023-04-03T04:37:05;0.60;;;0.60;;
10523;SDS011;5310;48.638;9.060;2023-04-03T04:39:31;0.60;;;0.60;;
10523;SDS011;5310;48.638;9.060;2023-04-03T04:41:57;0.60;;;0.60;;
10523;SDS011;5310;48.638;9.060;2023-04-03T04:44:23;0.70;;;0.70;;
10523;SDS011;5310;48.638;9.060;2023-04-03T04:46:49;0.60;;;0.60;;
10523;SDS011;5310;48.638;9.060;2023-04-03T04:49:15;0.60;;;0.60;;
10523;SDS011;5310;48.638;9.060;2023-04-03T04:51:41;0.60;;;0.60;;
10523;SDS011;5310;48.638;9.060;2023-04-03T04:54:07;0.60;;;0.60;;
10523;SDS011;5310;48.638;9.060;2023-04-03T04:56:33;0.70;;;0.70;;
10523;SDS011;5310;48.638;9.060;2023-04-03T04:58:59;0.60;;;0.60;;
10523;SDS011;5310;48.638;9.060;2023-04-03T05:01:25;0.60;;;0.60;;
10523;SDS011;5310;48.638;9.060;2023-04-03T05:03:51;0.60;;;0.60;;
10523;SDS011;5310;48.638;9.060;2023-04-03T05:06:17;0.50;;;0.50;;
10523;SDS011;5310;48.638;9.060;2023-04-03T05:08:43;0.60;;;0.60;;
10523;SDS011;5310;48.638;9.060;2023-04-03T05:11:09;0.60;;;0.60;;
10523;SDS011;5310;48.638;9.060;2023-04-03T05:13:35;0.60;;;0.60;;
10523;SDS011;5310;48.638;9.060;2023-04-03T05:16:01;0.60;;;0.60;;
10523;SDS011;5310;48.638;9.060;2023-04-03T05:18:27;0.70;;;0.70;;
10523;SDS011;5310;48.638;9.060;2023-04-03T05:20:53;0.60;;;0.60;;
10523;SDS011;5310;48.638;9.060;2023-04-03T05:23:19;0.60;;;0.60;;
10523;SDS011;5310;48.638;9.060;2023-04-03T05:25:45;0.60;;;0.60;;
10523;SDS011;5310;48.638;9.060;2023-04-03T05:28:12;0.63;;;0.63;;
10523;SDS011;5310;48.638;9.060;2023-04-03T05:30:37;0.60;;;0.60;;
10523;SDS011;5310;48.638;9.060;2023-04-03T05:33:03;0.60;;;0.60;;
10523;SDS011;5310;48.638;9.060;2023-04-03T05:35:30;0.60;;;0.60;;
10523;SDS011;5310;48.638;9.060;2023-04-03T05:37:57;0.60;;;0.60;;
10523;SDS011;5310;48.638;9.060;2023-04-03T05:40:23;0.60;;;0.60;;
10523;SDS011;5310;48.638;9.060;2023-04-03T05:42:49;0.60;;;0.60;;
10523;SDS011;5310;48.638;9.060;2023-04-03T05:45:15;0.60;;;0.60;;
10523;SDS011;5310;48.638;9.060;2023-04-03T05:47:41;0.60;;;0.60;;
10523;SDS011;5310;48.638;9.060;2023-04-03T05:50:07;0.60;;;0.60;;
10523;SDS011;5310;48.638;9.060;2023-04-03T05:52:34;0.60;;;0.60;;
10523;SDS011;5310;48.638;9.060;2023-04-03T05:55:00;0.60;;;0.60;;
10523;SDS011;5310;48.638;9.060;2023-04-03T05:57:26;0.63;;;0.63;;
10523;SDS011;5310;48.638;9.060;2023-04-03T05:59:52;0.60;;;0.60;;
10523;SDS011;5310;48.638;9.060;2023-04-03T06:02:19;0.53;;;0.53;;
10523;SDS011;5310;48.638;9.060;2023-04-03T06:04:46;0.60;;;0.60;;
10523;SDS011;5310;48.638;9.060;2023-04-03T06:07:19;0.63;;;0.63;;
10523;SDS011;5310;48.638;9.060;2023-04-03T06:09:47;0.80;;;0.80;;
10523;SDS011;5310;48.638;9.060;2023-04-03T06:12:13;0.90;;;0.90;;
10523;SDS011;5310;48.638;9.060;2023-04-03T06:14:39;1.00;;;1.00;;
10523;SDS011;5310;48.638;9.060;2023-04-03T06:17:06;1.00;;;1.00;;
10523;SDS011;5310;48.638;9.060;2023-04-03T06:19:33;1.00;;;1.00;;
10523;SDS011;5310;48.638;9.060;2023-04-03T06:21:59;1.00;;;1.00;;
10523;SDS011;5310;48.638;9.060;2023-04-03T06:24:25;1.00;;;1.00;;
10523;SDS011;5310;48.638;9.060;2023-04-03T06:26:51;1.00;;;1.00;;
10523;SDS011;5310;48.638;9.060;2023-04-03T06:29:18;1.00;;;1.00;;
10523;SDS011;5310;48.638;9.060;2023-04-03T06:31:44;1.00;;;1.00;;
10523;SDS011;5310;48.638;9.060;2023-04-03T06:34:11;1.00;;;1.00;;
10523;SDS011;5310;48.638;9.060;2023-04-03T06:36:37;0.93;;;0.93;;
10523;SDS011;5310;48.638;9.060;2023-04-03T06:39:03;0.85;;;0.85;;
10523;SDS011;5310;48.638;9.060;2023-04-03T06:41:29;0.80;;;0.80;;
10523;SDS011;5310;48.638;9.060;2023-04-03T06:43:55;0.63;;;0.63;;
10523;SDS011;5310;48.638;9.060;2023-04-03T06:46:23;0.60;;;0.60;;
10523;SDS011;5310;48.638;9.060;2023-04-03T06:48:49;0.60;;;0.60;;
10523;SDS011;5310;48.638;9.060;2023-04-03T06:51:20;0.60;;;0.60;;
10523;SDS011;5310;48.638;9.060;2023-04-03T06:53:47;0.60;;;0.60;;
10523;SDS011;5310;48.638;9.060;2023-04-03T06:56:13;0.60;;;0.60;;
10523;SDS011;5310;48.638;9.060;2023-04-03T06:58:39;0.50;;;0.50;;
10523;SDS011;5310;48.638;9.060;2023-04-03T07:01:05;0.70;;;0.70;;
10523;SDS011;5310;48.638;9.060;2023-04-03T07:03:31;0.73;;;0.73;;
10523;SDS011;5310;48.638;9.060;2023-04-03T07:05:57;0.77;;;0.77;;
10523;SDS011;5310;48.638;9.060;2023-04-03T07:08:23;0.77;;;0.77;;
10523;SDS011;5310;48.638;9.060;2023-04-03T07:10:50;0.80;;;0.80;;
10523;SDS011;5310;48.638;9.060;2023-04-03T07:13:16;0.75;;;0.75;;
10523;SDS011;5310;48.638;9.060;2023-04-03T07:15:42;0.75;;;0.75;;
10523;SDS011;5310;48.638;9.060;2023-04-03T07:18:09;0.77;;;0.77;;
10523;SDS011;5310;48.638;9.060;2023-04-03T07:20:35;0.80;;;0.80;;
10523;SDS011;5310;48.638;9.060;2023-04-03T07:23:01;0.90;;;0.90;;
10523;SDS011;5310;48.638;9.060;2023-04-03T07:25:27;1.00;;;1.00;;
10523;SDS011;5310;48.638;9.060;2023-04-03T07:27:53;1.00;;;1.00;;
10523;SDS011;5310;48.638;9.060;2023-04-03T07:30:19;1.00;;;1.00;;
10523;SDS011;5310;48.638;9.060;2023-04-03T07:32:45;1.00;;;1.00;;
10523;SDS011;5310;48.638;9.060;2023-04-03T07:35:11;1.00;;;1.00;;
10523;SDS011;5310;48.638;9.060;2023-04-03T07:37:37;1.00;;;1.00;;
10523;SDS011;5310;48.638;9.060;2023-04-03T07:40:04;1.00;;;1.00;;
10523;SDS011;5310;48.638;9.060;2023-04-03T07:42:30;0.90;;;0.90;;
10523;SDS011;5310;48.638;9.060;2023-04-03T07:44:56;1.00;;;1.00;;
10523;SDS011;5310;48.638;9.060;2023-04-03T07:47:22;0.98;;;0.98;;
10523;SDS011;5310;48.638;9.060;2023-04-03T07:49:48;1.00;;;1.00;;
10523;SDS011;5310;48.638;9.060;2023-04-03T07:52:14;0.98;;;0.98;;
10523;SDS011;5310;48.638;9.060;2023-04-03T07:54:41;0.90;;;0.90;;
10523;SDS011;5310;48.638;9.060;2023-04-03T07:57:07;0.93;;;0.93;;
10523;SDS011;5310;48.638;9.060;2023-04-03T07:59:33;0.90;;;0.90;;
10523;SDS011;5310;48.638;9.060;2023-04-03T08:01:59;0.80;;;0.80;;
10523;SDS011;5310;48.638;9.060;2023-04-03T08:04:25;0.70;;;0.70;;
10523;SDS011;5310;48.638;9.060;2023-04-03T08:06:52;0.70;;;0.70;;
10523;SDS011;5310;48.638;9.060;2023-04-03T08:09:18;0.70;;;0.70;;
10523;SDS011;5310;48.638;9.060;2023-04-03T08:11:44;0.70;;;0.70;;
10523;SDS011;5310;48.638;9.060;2023-04-03T08:14:11;0.68;;;0.68;;
10523;SDS011;5310;48.638;9.060;2023-04-03T08:16:41;0.70;;;0.70;;
10523;SDS011;5310;48.638;9.060;2023-04-03T08:19:07;0.70;;;0.70;;
10523;SDS011;5310;48.638;9.060;2023-04-03T08:21:33;0.60;;;0.60;;
10523;SDS011;5310;48.638;9.060;2023-04-03T08:23:59;0.60;;;0.60;;
10523;SDS011;5310;48.638;9.060;2023-04-03T08:26:25;0.60;;;0.60;;
10523;SDS011;5310;48.638;9.060;2023-04-03T08:28:51;0.60;;;0.60;;
10523;SDS011;5310;48.638;9.060;2023-04-03T08:31:18;0.60;;;0.60;;
10523;SDS011;5310;48.638;9.060;2023-04-03T08:33:44;0.50;;;0.50;;
10523;SDS011;5310;48.638;9.060;2023-04-03T08:36:44;0.63;;;0.63;;
10523;SDS011;5310;48.638;9.060;2023-04-03T08:39:03;0.90;;;0.90;;
10523;SDS011;5310;48.638;9.060;2023-04-03T08:41:31;0.80;;;0.80;;
10523;SDS011;5310;48.638;9.060;2023-04-03T08:46:26;0.60;;;0.60;;
10523;SDS011;5310;48.638;9.060;2023-04-03T08:48:56;0.57;;;0.57;;
10523;SDS011;5310;48.638;9.060;2023-04-03T08:51:23;0.73;;;0.73;;
10523;SDS011;5310;48.638;9.060;2023-04-03T08:54:01;0.85;;;0.85;;
10523;SDS011;5310;48.638;9.060;2023-04-03T08:56:28;0.88;;;0.88;;
10523;SDS011;5310;48.638;9.060;2023-04-03T08:58:57;0.70;;;0.70;;
10523;SDS011;5310;48.638;9.060;2023-04-03T09:01:33;0.63;;;0.63;;
10523;SDS011;5310;48.638;9.060;2023-04-03T09:04:00;0.50;;;0.50;;
10523;SDS011;5310;48.638;9.060;2023-04-03T09:06:27;0.50;;;0.50;;
10523;SDS011;5310;48.638;9.060;2023-04-03T09:14:29;0.60;;;0.60;;
10523;SDS011;5310;48.638;9.060;2023-04-03T09:16:59;0.50;;;0.50;;
10523;SDS011;5310;48.638;9.060;2023-04-03T09:22:07;0.90;;;0.90;;
10523;SDS011;5310;48.638;9.060;2023-04-03T09:24:37;0.70;;;0.70;;
10523;SDS011;5310;48.638;9.060;2023-04-03T09:27:04;0.60;;;0.60;;
10523;SDS011;5310;48.638;9.060;2023-04-03T09:29:32;0.50;;;0.50;;
10523;SDS011;5310;48.638;9.060;2023-04-03T09:32:00;0.70;;;0.70;;
10523;SDS011;5310;48.638;9.060;2023-04-03T09:34:28;0.85;;;0.85;;
10523;SDS011;5310;48.638;9.060;2023-04-03T09:36:56;0.98;;;0.98;;
10523;SDS011;5310;48.638;9.060;2023-04-03T09:39:26;0.80;;;0.80;;
10523;SDS011;5310;48.638;9.060;2023-04-03T09:42:03;0.68;;;0.68;;
10523;SDS011;5310;48.638;9.060;2023-04-03T09:44:34;0.60;;;0.60;;
10523;SDS011;5310;48.638;9.060;2023-04-03T09:47:16;0.50;;;0.50;;
10523;SDS011;5310;48.638;9.060;2023-04-03T09:49:43;0.70;;;0.70;;
10523;SDS011;5310;48.638;9.060;2023-04-03T09:52:19;0.80;;;0.80;;
10523;SDS011;5310;48.638;9.060;2023-04-03T09:54:45;0.70;;;0.70;;
10523;SDS011;5310;48.638;9.060;2023-04-03T09:57:14;0.70;;;0.70;;
10523;SDS011;5310;48.638;9.060;2023-04-03T10:00:01;0.60;;;0.60;;
10523;SDS011;5310;48.638;9.060;2023-04-03T10:04:58;0.70;;;0.70;;
10523;SDS011;5310;48.638;9.060;2023-04-03T10:07:32;0.98;;;0.98;;
10523;SDS011;5310;48.638;9.060;2023-04-03T10:10:20;0.70;;;0.70;;
10523;SDS011;5310;48.638;9.060;2023-04-03T10:12:45;0.60;;;0.60;;
10523;SDS011;5310;48.638;9.060;2023-04-03T10:15:15;0.53;;;0.53;;
10523;SDS011;5310;48.638;9.060;2023-04-03T10:28:02;0.60;;;0.60;;
10523;SDS011;5310;48.638;9.060;2023-04-03T10:33:08;0.77;;;0.77;;
10523;SDS011;5310;48.638;9.060;2023-04-03T10:35:41;0.70;;;0.70;;
10523;SDS011;5310;48.638;9.060;2023-04-03T10:38:18;0.50;;;0.50;;
10523;SDS011;5310;48.638;9.060;2023-04-03T10:40:55;0.50;;;0.50;;
10523;SDS011;5310;48.638;9.060;2023-04-03T10:48:35;0.70;;;0.70;;
10523;SDS011;5310;48.638;9.060;2023-04-03T10:51:14;0.60;;;0.60;;
10523;SDS011;5310;48.638;9.060;2023-04-03T10:53:53;0.60;;;0.60;;
10523;SDS011;5310;48.638;9.060;2023-04-03T10:59:07;0.90;;;0.90;;
10523;SDS011;5310;48.638;9.060;2023-04-03T11:01:34;0.70;;;0.70;;
10523;SDS011;5310;48.638;9.060;2023-04-03T11:04:03;0.60;;;0.60;;
10523;SDS011;5310;48.638;9.060;2023-04-03T11:06:32;0.60;;;0.60;;
10523;SDS011;5310;48.638;9.060;2023-04-03T11:09:02;0.73;;;0.73;;
10523;SDS011;5310;48.638;9.060;2023-04-03T11:11:33;1.00;;;1.00;;
10523;SDS011;5310;48.638;9.060;2023-04-03T11:14:11;0.98;;;0.98;;
10523;SDS011;5310;48.638;9.060;2023-04-03T11:16:42;0.70;;;0.70;;
10523;SDS011;5310;48.638;9.060;2023-04-03T11:19:14;0.70;;;0.70;;
10523;SDS011;5310;48.638;9.060;2023-04-03T11:21:48;0.70;;;0.70;;
10523;SDS011;5310;48.638;9.060;2023-04-03T11:24:22;0.70;;;0.70;;
10523;SDS011;5310;48.638;9.060;2023-04-03T11:26:49;0.77;;;0.77;;
10523;SDS011;5310;48.638;9.060;2023-04-03T11:29:18;0.80;;;0.80;;
10523;SDS011;5310;48.638;9.060;2023-04-03T11:34:34;0.90;;;0.90;;
10523;SDS011;5310;48.638;9.060;2023-04-03T11:37:04;0.80;;;0.80;;
10523;SDS011;5310;48.638;9.060;2023-04-03T11:39:32;0.63;;;0.63;;
10523;SDS011;5310;48.638;9.060;2023-04-03T11:42:23;0.60;;;0.60;;
10523;SDS011;5310;48.638;9.060;2023-04-03T11:44:51;0.60;;;0.60;;
10523;SDS011;5310;48.638;9.060;2023-04-03T11:48:41;0.80;;;0.80;;
10523;SDS011;5310;48.638;9.060;2023-04-03T12:11:13;0.90;;;0.90;;
10523;SDS011;5310;48.638;9.060;2023-04-03T12:13:37;0.60;;;0.60;;
10523;SDS011;5310;48.638;9.060;2023-04-03T12:16:04;0.60;;;0.60;;
10523;SDS011;5310;48.638;9.060;2023-04-03T12:18:40;0.50;;;0.50;;
10523;SDS011;5310;48.638;9.060;2023-04-03T12:21:07;0.73;;;0.73;;
10523;SDS011;5310;48.638;9.060;2023-04-03T12:23:34;0.90;;;0.90;;
10523;SDS011;5310;48.638;9.060;2023-04-03T12:26:21;0.90;;;0.90;;
10523;SDS011;5310;48.638;9.060;2023-04-03T12:28:47;0.60;;;0.60;;
10523;SDS011;5310;48.638;9.060;2023-04-03T12:31:14;0.57;;;0.57;;
10523;SDS011;5310;48.638;9.060;2023-04-03T12:34:00;0.50;;;0.50;;
10523;SDS011;5310;48.638;9.060;2023-04-03T12:37:02;0.82;;;0.82;;
10523;SDS011;5310;48.638;9.060;2023-04-03T12:39:36;0.60;;;0.60;;
10523;SDS011;5310;48.638;9.060;2023-04-03T12:44:45;0.90;;;0.90;;
10523;SDS011;5310;48.638;9.060;2023-04-03T12:47:19;0.73;;;0.73;;
10523;SDS011;5310;48.638;9.060;2023-04-03T12:49:47;0.60;;;0.60;;
10523;SDS011;5310;48.638;9.060;2023-04-03T12:54:46;0.60;;;0.60;;
10523;SDS011;5310;48.638;9.060;2023-04-03T12:57:17;0.50;;;0.50;;
10523;SDS011;5310;48.638;9.060;2023-04-03T12:59:44;0.90;;;0.90;;
10523;SDS011;5310;48.638;9.060;2023-04-03T13:04:46;0.60;;;0.60;;
10523;SDS011;5310;48.638;9.060;2023-04-03T13:07:19;0.60;;;0.60;;
10523;SDS011;5310;48.638;9.060;2023-04-03T13:09:50;0.43;;;0.43;;
10523;SDS011;5310;48.638;9.060;2023-04-03T13:12:20;0.80;;;0.80;;
10523;SDS011;5310;48.638;9.060;2023-04-03T13:14:57;0.70;;;0.70;;
10523;SDS011;5310;48.638;9.060;2023-04-03T13:17:23;0.50;;;0.50;;
10523;SDS011;5310;48.638;9.060;2023-04-03T13:19:49;0.50;;;0.50;;
10523;SDS011;5310;48.638;9.060;2023-04-03T13:22:30;0.80;;;0.80;;
10523;SDS011;5310;48.638;9.060;2023-04-03T13:24:59;0.70;;;0.70;;
10523;SDS011;5310;48.638;9.060;2023-04-03T13:27:27;0.60;;;0.60;;
10523;SDS011;5310;48.638;9.060;2023-04-03T13:29:56;0.50;;;0.50;;
10523;SDS011;5310;48.638;9.060;2023-04-03T13:32:23;0.90;;;0.90;;
10523;SDS011;5310;48.638;9.060;2023-04-03T13:34:50;0.65;;;0.65;;
10523;SDS011;5310;48.638;9.060;2023-04-03T13:37:26;0.60;;;0.60;;
10523;SDS011;5310;48.638;9.060;2023-04-03T13:39:57;0.50;;;0.50;;
10523;SDS011;5310;48.638;9.060;2023-04-03T13:42:24;0.70;;;0.70;;
10523;SDS011;5310;48.638;9.060;2023-04-03T13:50:33;0.70;;;0.70;;
10523;SDS011;5310;48.638;9.060;2023-04-03T13:53:15;0.60;;;0.60;;
10523;SDS011;5310;48.638;9.060;2023-04-03T13:58:24;0.60;;;0.60;;
10523;SDS011;5310;48.638;9.060;2023-04-03T14:06:04;0.50;;;0.50;;
10523;SDS011;5310;48.638;9.060;2023-04-03T14:08:30;0.50;;;0.50;;
10523;SDS011;5310;48.638;9.060;2023-04-03T14:10:56;0.80;;;0.80;;
10523;SDS011;5310;48.638;9.060;2023-04-03T14:13:22;0.95;;;0.95;;
10523;SDS011;5310;48.638;9.060;2023-04-03T14:15:48;0.80;;;0.80;;
10523;SDS011;5310;48.638;9.060;2023-04-03T14:18:17;0.60;;;0.60;;
10523;SDS011;5310;48.638;9.060;2023-04-03T14:20:43;0.55;;;0.55;;
10523;SDS011;5310;48.638;9.060;2023-04-03T14:23:09;0.50;;;0.50;;
10523;SDS011;5310;48.638;9.060;2023-04-03T14:25:35;0.77;;;0.77;;
10523;SDS011;5310;48.638;9.060;2023-04-03T14:28:07;0.70;;;0.70;;
10523;SDS011;5310;48.638;9.060;2023-04-03T14:30:38;0.50;;;0.50;;
10523;SDS011;5310;48.638;9.060;2023-04-03T14:33:05;0.52;;;0.52;;
10523;SDS011;5310;48.638;9.060;2023-04-03T14:35:32;0.80;;;0.80;;
10523;SDS011;5310;48.638;9.060;2023-04-03T14:37:58;0.60;;;0.60;;
10523;SDS011;5310;48.638;9.060;2023-04-03T14:40:25;0.60;;;0.60;;
10523;SDS011;5310;48.638;9.060;2023-04-03T14:42:51;0.50;;;0.50;;
10523;SDS011;5310;48.638;9.060;2023-04-03T14:45:20;0.77;;;0.77;;
10523;SDS011;5310;48.638;9.060;2023-04-03T14:47:48;0.90;;;0.90;;
10523;SDS011;5310;48.638;9.060;2023-04-03T14:50:16;0.75;;;0.75;;
10523;SDS011;5310;48.638;9.060;2023-04-03T14:52:43;0.70;;;0.70;;
10523;SDS011;5310;48.638;9.060;2023-04-03T14:55:11;0.60;;;0.60;;
10523;SDS011;5310;48.638;9.060;2023-04-03T14:57:37;0.60;;;0.60;;
10523;SDS011;5310;48.638;9.060;2023-04-03T15:00:04;0.60;;;0.60;;
10523;SDS011;5310;48.638;9.060;2023-04-03T15:02:32;0.50;;;0.50;;
10523;SDS011;5310;48.638;9.060;2023-04-03T15:04:58;0.80;;;0.80;;
10523;SDS011;5310;48.638;9.060;2023-04-03T15:07:25;1.00;;;1.00;;
10523;SDS011;5310;48.638;9.060;2023-04-03T15:09:52;0.90;;;0.90;;
10523;SDS011;5310;48.638;9.060;2023-04-03T15:12:21;0.80;;;0.80;;
10523;SDS011;5310;48.638;9.060;2023-04-03T15:14:46;0.70;;;0.70;;
10523;SDS011;5310;48.638;9.060;2023-04-03T15:17:15;0.70;;;0.70;;
10523;SDS011;5310;48.638;9.060;2023-04-03T15:19:41;0.60;;;0.60;;
10523;SDS011;5310;48.638;9.060;2023-04-03T15:22:08;0.60;;;0.60;;
10523;SDS011;5310;48.638;9.060;2023-04-03T15:24:38;0.55;;;0.55;;
10523;SDS011;5310;48.638;9.060;2023-04-03T15:27:04;0.77;;;0.77;;
10523;SDS011;5310;48.638;9.060;2023-04-03T15:29:30;0.80;;;0.80;;
10523;SDS011;5310;48.638;9.060;2023-04-03T15:31:56;0.70;;;0.70;;
10523;SDS011;5310;48.638;9.060;2023-04-03T15:34:22;0.60;;;0.60;;
10523;SDS011;5310;48.638;9.060;2023-04-03T15:36:48;0.50;;;0.50;;
10523;SDS011;5310;48.638;9.060;2023-04-03T15:39:14;0.60;;;0.60;;
10523;SDS011;5310;48.638;9.060;2023-04-03T15:41:41;0.68;;;0.68;;
10523;SDS011;5310;48.638;9.060;2023-04-03T15:44:07;0.88;;;0.88;;
10523;SDS011;5310;48.638;9.060;2023-04-03T15:46:33;1.00;;;1.00;;
10523;SDS011;5310;48.638;9.060;2023-04-03T15:48:59;1.00;;;1.00;;
10523;SDS011;5310;48.638;9.060;2023-04-03T15:51:25;0.90;;;0.90;;
10523;SDS011;5310;48.638;9.060;2023-04-03T15:53:51;0.80;;;0.80;;
10523;SDS011;5310;48.638;9.060;2023-04-03T15:56:17;0.60;;;0.60;;
10523;SDS011;5310;48.638;9.060;2023-04-03T15:58:43;0.60;;;0.60;;
10523;SDS011;5310;48.638;9.060;2023-04-03T16:01:09;0.60;;;0.60;;
10523;SDS011;5310;48.638;9.060;2023-04-03T16:03:36;0.60;;;0.60;;
10523;SDS011;5310;48.638;9.060;2023-04-03T16:06:08;0.70;;;0.70;;
10523;SDS011;5310;48.638;9.060;2023-04-03T16:08:34;0.90;;;0.90;;
10523;SDS011;5310;48.638;9.060;2023-04-03T16:11:01;1.00;;;1.00;;
10523;SDS011;5310;48.638;9.060;2023-04-03T16:13:27;0.90;;;0.90;;
10523;SDS011;5310;48.638;9.060;2023-04-03T16:15:53;0.80;;;0.80;;
10523;SDS011;5310;48.638;9.060;2023-04-03T16:18:20;0.65;;;0.65;;
10523;SDS011;5310;48.638;9.060;2023-04-03T16:20:46;0.60;;;0.60;;
10523;SDS011;5310;48.638;9.060;2023-04-03T16:23:13;0.60;;;0.60;;
10523;SDS011;5310;48.638;9.060;2023-04-03T16:25:39;0.60;;;0.60;;
10523;SDS011;5310;48.638;9.060;2023-04-03T16:28:05;0.57;;;0.57;;
10523;SDS011;5310;48.638;9.060;2023-04-03T16:30:31;0.80;;;0.80;;